Time;durP1;ratioP1;P1;durP2;ratioP2;P2;SDS_P1;SDS_P2;PMS_P1;PMS_P2;Temp;Humidity;BMP_temperature;BMP_pressure;BME280_temperature;BME280_humidity;BME280_pressure;Samples;Min_cycle;Max_cycle;Signal;HPM_P1;HPM_P2
2022/07/24 00:01:07;;;;;;;11.18;6.55;;;22.30;59.40;;;;;;4666487;30;20049;-84
2022/07/24 00:03:33;;;;;;;13.32;7.38;;;22.30;59.20;;;;;;4668022;30;20042;-81
2022/07/24 00:05:59;;;;;;;13.20;7.85;;;;;;;;;;4680375;24;20081;-81
2022/07/24 00:08:25;;;;;;;14.60;7.68;;;22.20;58.30;;;;;;4674379;30;20343;-80
2022/07/24 00:10:51;;;;;;;12.93;7.05;;;22.20;58.90;;;;;;4667070;30;20338;-82
2022/07/24 00:13:16;;;;;;;13.02;6.55;;;22.30;58.70;;;;;;4652682;30;20042;-84
2022/07/24 00:15:42;;;;;;;14.45;6.55;;;22.20;59.20;;;;;;4666936;30;20038;-81
2022/07/24 00:18:08;;;;;;;11.38;7.00;;;22.20;59.30;;;;;;4666929;30;20085;-81
2022/07/24 00:20:34;;;;;;;11.20;7.15;;;22.20;59.40;;;;;;4666638;30;20045;-81
2022/07/24 00:23:00;;;;;;;15.57;7.70;;;22.10;59.30;;;;;;4668620;30;20494;-82
2022/07/24 00:25:26;;;;;;;12.32;6.97;;;;;;;;;;4668029;30;20045;-81
2022/07/24 00:27:52;;;;;;;11.23;6.50;;;22.10;59.00;;;;;;4671688;30;20053;-82
2022/07/24 00:30:17;;;;;;;11.35;6.72;;;22.10;60.60;;;;;;4671877;30;20384;-81
2022/07/24 00:32:43;;;;;;;12.43;7.13;;;22.00;60.60;;;;;;4670380;30;20061;-83
2022/07/24 00:35:10;;;;;;;13.35;7.40;;;21.90;60.70;;;;;;4670998;30;20814;-81
2022/07/24 00:37:36;;;;;;;11.15;6.90;;;21.90;60.80;;;;;;4672154;30;20122;-83
2022/07/24 00:40:02;;;;;;;13.02;6.95;;;21.90;61.10;;;;;;4671983;30;20506;-83
2022/07/24 00:42:28;;;;;;;10.88;6.75;;;21.90;61.10;;;;;;4671319;30;20072;-82
2022/07/24 00:44:53;;;;;;;17.13;8.00;;;21.80;61.40;;;;;;4671385;30;20030;-84
2022/07/24 00:47:19;;;;;;;14.50;8.40;;;21.80;61.10;;;;;;4671437;30;20656;-83
2022/07/24 00:49:45;;;;;;;12.75;7.15;;;21.70;61.30;;;;;;4669775;30;20148;-81
2022/07/24 00:52:14;;;;;;;11.70;6.38;;;21.70;61.60;;;;;;4671141;30;20045;-84
2022/07/24 00:54:40;;;;;;;14.48;8.20;;;21.60;61.30;;;;;;4669784;30;20129;-84
2022/07/24 00:57:06;;;;;;;12.05;7.45;;;21.60;61.80;;;;;;4691099;24;20153;-83
2022/07/24 00:59:31;;;;;;;16.80;6.93;;;21.60;62.30;;;;;;4670937;30;20186;-83
2022/07/24 01:01:57;;;;;;;11.73;7.07;;;21.50;62.10;;;;;;4670122;30;20034;-84
2022/07/24 01:04:23;;;;;;;12.90;7.47;;;21.50;62.10;;;;;;4670967;30;20034;-84
2022/07/24 01:06:49;;;;;;;14.38;6.90;;;21.40;62.50;;;;;;4669487;30;20358;-84
2022/07/24 01:09:15;;;;;;;13.93;7.45;;;21.40;62.70;;;;;;4670904;30;20319;-83
2022/07/24 01:11:42;;;;;;;24.20;9.02;;;21.30;63.10;;;;;;4670611;30;20054;-83
2022/07/24 01:14:10;;;;;;;22.42;10.30;;;21.20;63.50;;;;;;4670805;30;20353;-85
2022/07/24 01:16:38;;;;;;;20.38;10.52;;;21.20;63.70;;;;;;4670646;30;20428;-81
2022/07/24 01:19:04;;;;;;;14.98;8.23;;;21.10;63.80;;;;;;4670965;30;20065;-83
2022/07/24 01:21:30;;;;;;;13.50;8.05;;;;;;;;;;4676927;24;20130;-83
2022/07/24 01:23:56;;;;;;;15.50;8.13;;;21.10;63.20;;;;;;4669367;30;20408;-82
2022/07/24 01:26:22;;;;;;;11.05;6.93;;;21.00;63.50;;;;;;4669119;30;20057;-82
2022/07/24 01:28:48;;;;;;;11.80;7.43;;;;;;;;;;4670476;30;20442;-82
2022/07/24 01:31:14;;;;;;;14.65;7.57;;;21.00;63.70;;;;;;4670306;30;20642;-84
2022/07/24 01:33:40;;;;;;;12.60;7.47;;;21.00;64.70;;;;;;4669184;30;20125;-83
2022/07/24 01:36:06;;;;;;;12.98;7.22;;;20.90;64.90;;;;;;4670258;30;20038;-83
2022/07/24 01:38:32;;;;;;;12.70;7.28;;;20.80;64.80;;;;;;4670022;30;20390;-82
2022/07/24 01:40:58;;;;;;;10.75;6.65;;;20.80;64.50;;;;;;4670371;30;20270;-81
2022/07/24 01:43:23;;;;;;;11.85;7.20;;;20.90;64.90;;;;;;4669250;30;20450;-81
2022/07/24 01:45:49;;;;;;;12.98;7.15;;;20.70;64.80;;;;;;4670237;30;20506;-83
2022/07/24 01:48:16;;;;;;;12.30;6.50;;;20.80;64.90;;;;;;4670469;30;20573;-83
2022/07/24 01:50:42;;;;;;;12.60;7.22;;;20.70;64.80;;;;;;4670670;30;20132;-81
2022/07/24 01:53:08;;;;;;;13.48;7.32;;;20.70;64.80;;;;;;4674810;30;20113;-80
2022/07/24 01:55:34;;;;;;;14.23;6.70;;;20.70;65.10;;;;;;4679232;30;20625;-81
2022/07/24 01:57:59;;;;;;;13.10;6.75;;;20.60;64.80;;;;;;4678453;30;20343;-81
2022/07/24 02:00:25;;;;;;;13.15;8.18;;;20.70;64.90;;;;;;4676898;30;20072;-80
2022/07/24 02:02:52;;;;;;;14.18;8.25;;;;;;;;;;4672356;30;20427;-81
2022/07/24 02:05:17;;;;;;;12.35;7.63;;;20.70;64.50;;;;;;4670550;30;20038;-81
2022/07/24 02:08:08;;;;;;;14.25;8.52;;;20.60;65.40;;;;;;4677357;24;20049;-81
2022/07/24 02:10:37;;;;;;;11.90;7.05;;;20.60;65.40;;;;;;4668758;30;20497;-81
2022/07/24 02:13:03;;;;;;;10.15;6.55;;;20.50;65.80;;;;;;4670148;30;20373;-81
2022/07/24 02:15:33;;;;;;;12.07;7.22;;;20.40;67.90;;;;;;4668652;30;20049;-81
2022/07/24 02:18:00;;;;;;;14.52;6.93;;;19.90;67.00;;;;;;4670116;30;20664;-82
2022/07/24 02:20:27;;;;;;;11.82;6.75;;;20.40;67.40;;;;;;4668187;30;20050;-81
2022/07/24 02:22:53;;;;;;;11.98;7.40;;;20.60;66.80;;;;;;4668484;30;20042;-82
2022/07/24 02:25:20;;;;;;;11.55;6.93;;;20.50;66.70;;;;;;4668399;30;20425;-81
2022/07/24 02:27:46;;;;;;;14.60;8.07;;;20.40;66.90;;;;;;4668122;30;20530;-82
2022/07/24 02:30:15;;;;;;;11.10;6.93;;;20.30;66.90;;;;;;4668141;30;20045;-81
2022/07/24 02:32:41;;;;;;;12.20;6.95;;;20.20;66.50;;;;;;4669207;30;20069;-81
2022/07/24 02:35:07;;;;;;;12.75;7.45;;;20.20;67.00;;;;;;4669288;30;20065;-81
2022/07/24 02:37:36;;;;;;;11.60;6.28;;;20.20;67.10;;;;;;4667865;30;20049;-82
2022/07/24 02:40:02;;;;;;;12.13;6.80;;;20.20;67.10;;;;;;4668018;30;20499;-81
2022/07/24 02:42:28;;;;;;;13.63;7.43;;;20.20;67.60;;;;;;4667771;30;20320;-82
2022/07/24 02:44:53;;;;;;;13.15;7.03;;;20.10;67.30;;;;;;4667666;30;20557;-81
2022/07/24 02:47:19;;;;;;;11.32;6.20;;;20.10;68.00;;;;;;4667727;30;20042;-82
2022/07/24 02:50:03;;;;;;;10.43;6.70;;;20.10;67.70;;;;;;4667239;30;20042;-82
2022/07/24 02:52:29;;;;;;;12.80;6.68;;;20.20;68.10;;;;;;4667924;30;20319;-81
2022/07/24 02:54:55;;;;;;;11.65;8.10;;;20.10;67.70;;;;;;4667790;30;20108;-81
2022/07/24 02:57:20;;;;;;;14.02;7.90;;;20.10;67.50;;;;;;4669210;30;20046;-81
2022/07/24 02:59:51;;;;;;;12.43;7.32;;;20.00;68.50;;;;;;4667469;30;20495;-82
2022/07/24 03:02:17;;;;;;;12.88;7.53;;;19.90;69.10;;;;;;4668983;30;20038;-80
2022/07/24 03:04:43;;;;;;;12.18;7.13;;;19.80;69.10;;;;;;4669000;30;20061;-81
2022/07/24 03:07:09;;;;;;;13.00;7.43;;;19.80;68.80;;;;;;4668541;30;20349;-82
2022/07/24 03:09:35;;;;;;;11.13;7.28;;;19.80;69.10;;;;;;4667313;30;20054;-83
2022/07/24 03:12:01;;;;;;;12.63;7.22;;;19.80;68.70;;;;;;4667531;30;20131;-81
2022/07/24 03:14:26;;;;;;;11.20;6.15;;;19.80;68.60;;;;;;4666984;30;20519;-81
2022/07/24 03:16:52;;;;;;;11.95;7.20;;;19.80;68.50;;;;;;4668518;30;20045;-82
2022/07/24 03:19:18;;;;;;;11.18;6.90;;;19.80;69.50;;;;;;4668659;30;20145;-82
2022/07/24 03:21:44;;;;;;;14.25;7.70;;;19.90;69.00;;;;;;4668701;30;20057;-81
2022/07/24 03:24:18;;;;;;;14.20;7.28;;;19.90;69.10;;;;;;4668596;30;20038;-80
2022/07/24 03:26:44;;;;;;;14.30;7.13;;;20.00;69.00;;;;;;4668424;30;20262;-83
2022/07/24 03:29:10;;;;;;;12.50;7.70;;;19.90;69.40;;;;;;4667243;30;20676;-82
2022/07/24 03:31:36;;;;;;;15.65;7.18;;;20.00;69.20;;;;;;4668410;30;20038;-82
2022/07/24 03:34:02;;;;;;;13.68;7.88;;;20.00;69.10;;;;;;4668374;30;20100;-81
2022/07/24 03:36:27;;;;;;;12.63;8.00;;;20.00;69.10;;;;;;4666910;30;20038;-83
2022/07/24 03:38:53;;;;;;;14.15;8.55;;;20.00;68.70;;;;;;4667008;30;20365;-82
2022/07/24 03:41:19;;;;;;;18.98;9.27;;;20.00;69.50;;;;;;4667020;30;20327;-82
2022/07/24 03:43:45;;;;;;;18.60;9.52;;;20.80;70.90;;;;;;4668692;30;20045;-83
2022/07/24 03:46:11;;;;;;;12.70;7.80;;;;;;;;;;4668554;30;20239;-84
2022/07/24 03:48:47;;;;;;;11.35;7.18;;;20.00;69.00;;;;;;4668162;30;20386;-83
2022/07/24 03:51:13;;;;;;;12.23;7.53;;;20.00;71.10;;;;;;4668373;30;20219;-83
2022/07/24 03:53:39;;;;;;;13.88;6.88;;;19.70;70.10;;;;;;4668464;30;20034;-84
2022/07/24 03:56:09;;;;;;;12.27;7.30;;;19.60;70.50;;;;;;4666793;30;20038;-82
2022/07/24 03:58:36;;;;;;;14.05;6.90;;;19.70;70.10;;;;;;4668057;30;20291;-82
2022/07/24 04:01:02;;;;;;;12.75;7.40;;;19.90;70.00;;;;;;4667913;30;20254;-82
2022/07/24 04:03:27;;;;;;;11.20;6.85;;;19.90;70.10;;;;;;4668196;30;20105;-83
2022/07/24 04:05:54;;;;;;;12.68;7.25;;;20.00;70.30;;;;;;4666632;30;20142;-82
2022/07/24 04:08:19;;;;;;;10.90;6.85;;;20.00;70.50;;;;;;4666327;30;20153;-82
2022/07/24 04:10:45;;;;;;;11.77;6.72;;;20.00;70.40;;;;;;4666440;30;20137;-82
2022/07/24 04:13:11;;;;;;;11.82;7.40;;;;;;;;;;4667978;30;20290;-82
2022/07/24 04:15:37;;;;;;;13.38;6.80;;;20.10;69.30;;;;;;4667853;30;20034;-83
2022/07/24 04:18:03;;;;;;;13.23;7.70;;;20.20;70.00;;;;;;4668416;30;20516;-84
2022/07/24 04:20:29;;;;;;;12.27;7.25;;;20.20;70.20;;;;;;4666636;30;20844;-82
2022/07/24 04:22:55;;;;;;;16.67;8.43;;;19.50;69.90;;;;;;4666670;30;20303;-81
2022/07/24 04:25:20;;;;;;;15.80;9.85;;;20.20;70.20;;;;;;4667800;30;20685;-81
2022/07/24 04:27:47;;;;;;;23.52;10.48;;;20.10;70.00;;;;;;4667978;30;20772;-83
2022/07/24 04:30:13;;;;;;;18.65;9.95;;;20.20;70.40;;;;;;4666509;30;20041;-82
2022/07/24 04:32:40;;;;;;;19.17;11.00;;;20.20;70.60;;;;;;4666484;30;20046;-82
2022/07/24 04:35:06;;;;;;;16.77;9.32;;;20.30;70.40;;;;;;4668144;30;20042;-82
2022/07/24 04:37:32;;;;;;;15.27;8.77;;;20.20;70.40;;;;;;4668198;30;20030;-83
2022/07/24 04:39:58;;;;;;;13.20;7.40;;;20.30;70.90;;;;;;4666951;30;20510;-83
2022/07/24 04:42:24;;;;;;;13.27;7.97;;;20.30;70.60;;;;;;4666947;30;20526;-82
2022/07/24 04:44:50;;;;;;;14.02;8.48;;;20.20;71.30;;;;;;4668033;30;20038;-83
2022/07/24 04:47:16;;;;;;;11.93;6.85;;;20.20;71.50;;;;;;4667751;30;20128;-84
2022/07/24 04:49:42;;;;;;;12.60;7.82;;;20.30;71.00;;;;;;4668159;30;20660;-82
2022/07/24 04:52:08;;;;;;;12.13;7.97;;;20.40;70.60;;;;;;4667775;30;20076;-83
2022/07/24 04:54:33;;;;;;;15.25;8.93;;;20.40;70.50;;;;;;4668050;30;20046;-83
2022/07/24 04:56:59;;;;;;;14.98;8.70;;;20.50;71.30;;;;;;4666623;30;20038;-83
2022/07/24 04:59:25;;;;;;;31.50;13.75;;;20.50;70.70;;;;;;4667849;30;20049;-82
2022/07/24 05:01:51;;;;;;;60.90;24.05;;;20.50;71.00;;;;;;4667923;30;20042;-82
2022/07/24 05:04:17;;;;;;;44.67;19.73;;;20.60;71.10;;;;;;4667830;30;20503;-82
2022/07/24 05:06:42;;;;;;;50.70;22.55;;;20.60;71.30;;;;;;4667688;30;20046;-82
2022/07/24 05:09:08;;;;;;;53.22;23.55;;;20.60;71.60;;;;;;4667525;30;20130;-82
2022/07/24 05:11:34;;;;;;;47.72;25.23;;;20.70;71.60;;;;;;4667965;30;20307;-82
2022/07/24 05:14:00;;;;;;;41.20;21.23;;;20.80;70.80;;;;;;4669496;30;20530;-82
2022/07/24 05:16:25;;;;;;;22.80;14.00;;;20.90;70.60;;;;;;4671026;30;20044;-82
2022/07/24 05:18:51;;;;;;;16.70;9.90;;;21.00;70.60;;;;;;4670890;30;20046;-82
2022/07/24 05:21:17;;;;;;;12.68;7.70;;;21.10;70.40;;;;;;4670575;30;20034;-82
2022/07/24 05:23:43;;;;;;;14.02;8.13;;;21.20;70.00;;;;;;4671179;30;20053;-83
2022/07/24 05:26:09;;;;;;;12.45;7.90;;;21.30;69.80;;;;;;4670667;30;20057;-83
2022/07/24 05:28:35;;;;;;;13.82;7.47;;;22.30;70.50;;;;;;4669574;30;20041;-83
2022/07/24 05:31:01;;;;;;;14.43;7.95;;;;;;;;;;4669669;30;20418;-84
2022/07/24 05:33:27;;;;;;;19.25;7.82;;;21.60;69.00;;;;;;4670911;30;20487;-83
2022/07/24 05:35:55;;;;;;;13.60;7.47;;;18.90;68.90;;;;;;4671156;30;20049;-81
2022/07/24 05:38:21;;;;;;;13.35;7.50;;;22.10;70.40;;;;;;4669610;30;20042;-82
2022/07/24 05:40:47;;;;;;;12.68;7.57;;;21.60;69.00;;;;;;4671213;30;20275;-82
2022/07/24 05:43:13;;;;;;;11.50;7.57;;;21.70;68.70;;;;;;4669527;30;20350;-81
2022/07/24 05:45:38;;;;;;;13.30;8.23;;;21.80;69.00;;;;;;4670711;30;20030;-82
2022/07/24 05:48:05;;;;;;;13.13;7.75;;;21.80;68.90;;;;;;4670873;30;20052;-82
2022/07/24 05:50:30;;;;;;;13.32;7.03;;;21.90;68.30;;;;;;4670583;30;20048;-82
2022/07/24 05:52:56;;;;;;;11.20;7.82;;;22.00;67.90;;;;;;4670237;30;20439;-80
2022/07/24 05:55:22;;;;;;;14.80;7.43;;;22.10;68.00;;;;;;4670087;30;20569;-82
2022/07/24 05:57:48;;;;;;;11.85;7.38;;;22.10;68.70;;;;;;4670215;30;20264;-81
2022/07/24 06:00:18;;;;;;;12.68;7.40;;;22.30;68.50;;;;;;4668791;30;20446;-81
2022/07/24 06:02:48;;;;;;;14.15;7.43;;;22.40;67.00;;;;;;4670133;30;20038;-83
2022/07/24 06:05:15;;;;;;;13.45;8.50;;;22.50;65.90;;;;;;4670109;30;20542;-82
2022/07/24 06:07:41;;;;;;;15.00;7.43;;;19.90;64.70;;;;;;4668702;30;20396;-81
2022/07/24 06:10:08;;;;;;;16.88;7.85;;;22.80;65.60;;;;;;4669867;30;20574;-82
2022/07/24 06:12:34;;;;;;;13.60;7.75;;;22.70;64.30;;;;;;4670003;30;20062;-82
2022/07/24 06:15:00;;;;;;;12.75;7.72;;;;;;;;;;4670021;30;20041;-82
2022/07/24 06:17:26;;;;;;;15.25;8.50;;;23.10;65.10;;;;;;4669799;30;20128;-82
2022/07/24 06:19:52;;;;;;;15.25;8.68;;;23.30;65.60;;;;;;4670047;30;20093;-82
2022/07/24 06:22:18;;;;;;;13.48;8.88;;;23.30;66.30;;;;;;4669670;30;20462;-83
2022/07/24 06:24:43;;;;;;;19.38;9.38;;;23.40;66.80;;;;;;4668814;30;20242;-82
2022/07/24 06:27:09;;;;;;;13.60;9.55;;;23.60;65.70;;;;;;4669441;30;20076;-82
2022/07/24 06:29:35;;;;;;;14.93;9.20;;;23.80;65.30;;;;;;4669811;30;20228;-81
2022/07/24 06:32:01;;;;;;;13.63;9.35;;;23.80;64.70;;;;;;4668240;30;20477;-81
2022/07/24 06:34:27;;;;;;;15.07;8.90;;;23.90;63.80;;;;;;4669551;30;20034;-83
2022/07/24 06:36:53;;;;;;;14.23;8.43;;;23.90;62.90;;;;;;4668198;30;20074;-83
2022/07/24 06:39:18;;;;;;;16.95;8.98;;;24.10;62.20;;;;;;4669371;30;20045;-84
2022/07/24 06:41:44;;;;;;;13.10;8.23;;;24.30;62.20;;;;;;4669366;30;20042;-82
2022/07/24 06:44:10;;;;;;;15.43;9.70;;;24.40;60.90;;;;;;4669651;30;20043;-83
2022/07/24 06:46:36;;;;;;;14.60;9.27;;;23.70;60.10;;;;;;4669290;30;20536;-81
2022/07/24 06:49:02;;;;;;;12.50;8.55;;;24.70;60.20;;;;;;4668127;30;20034;-84
2022/07/24 06:51:28;;;;;;;11.23;8.43;;;24.80;60.20;;;;;;4667727;30;20057;-82
2022/07/24 06:53:54;;;;;;;13.60;8.05;;;24.90;60.30;;;;;;4669128;30;20049;-81
2022/07/24 06:56:19;;;;;;;12.80;8.63;;;25.00;60.30;;;;;;4669447;30;20064;-82
2022/07/24 06:58:46;;;;;;;14.45;9.13;;;25.00;60.40;;;;;;4669145;30;20178;-81
2022/07/24 07:01:12;;;;;;;17.33;9.35;;;;;;;;;;4667578;30;20048;-82
2022/07/24 07:03:38;;;;;;;15.30;9.10;;;25.10;60.00;;;;;;4669018;30;20045;-82
2022/07/24 07:06:04;;;;;;;11.95;8.30;;;25.10;61.60;;;;;;4667419;30;20046;-81
2022/07/24 07:08:29;;;;;;;13.07;8.65;;;25.50;62.40;;;;;;4668818;30;20065;-81
2022/07/24 07:10:55;;;;;;;12.77;8.75;;;25.60;61.80;;;;;;4668822;30;20385;-82
2022/07/24 07:13:21;;;;;;;13.90;8.23;;;25.40;62.10;;;;;;4668954;30;20045;-82
2022/07/24 07:15:47;;;;;;;15.38;8.52;;;27.50;63.30;;;;;;4667657;30;20049;-83
2022/07/24 07:18:14;;;;;;;13.82;8.63;;;25.70;62.00;;;;;;4669308;30;20034;-83
2022/07/24 07:20:40;;;;;;;16.60;8.40;;;26.10;62.70;;;;;;4668171;30;20519;-83
2022/07/24 07:23:06;;;;;;;12.60;8.93;;;25.80;62.60;;;;;;4669459;30;20534;-83
2022/07/24 07:25:32;;;;;;;13.90;8.77;;;26.00;61.80;;;;;;4668956;30;20685;-82
2022/07/24 07:27:57;;;;;;;16.55;10.43;;;26.10;61.90;;;;;;4669036;30;20034;-82
2022/07/24 07:30:23;;;;;;;16.23;9.25;;;26.30;61.50;;;;;;4668770;30;20627;-81
2022/07/24 07:32:49;;;;;;;16.88;9.52;;;26.50;61.60;;;;;;4668820;30;20034;-81
2022/07/24 07:35:17;;;;;;;15.35;9.50;;;26.60;61.90;;;;;;4668540;30;20049;-82
2022/07/24 07:37:46;;;;;;;16.45;10.40;;;26.60;62.10;;;;;;4668655;30;20040;-83
2022/07/24 07:40:14;;;;;;;13.77;8.85;;;27.00;63.40;;;;;;4668705;30;20045;-82
2022/07/24 07:42:40;;;;;;;14.38;9.95;;;26.70;63.40;;;;;;4667252;30;20382;-83
2022/07/24 07:45:06;;;;;;;12.15;7.97;;;27.60;63.20;;;;;;4668767;30;20072;-83
2022/07/24 07:47:36;;;;;;;14.65;9.65;;;26.30;61.20;;;;;;4667103;30;20443;-84
2022/07/24 07:50:03;;;;;;;15.13;8.88;;;27.20;61.80;;;;;;4668630;30;20058;-83
2022/07/24 07:52:29;;;;;;;12.48;8.65;;;27.30;60.90;;;;;;4667013;30;20034;-83
2022/07/24 07:54:55;;;;;;;15.82;9.65;;;27.40;60.70;;;;;;4668406;30;20254;-85
2022/07/24 07:57:21;;;;;;;12.88;8.32;;;27.60;60.90;;;;;;4666847;30;20129;-83
2022/07/24 07:59:47;;;;;;;12.65;8.75;;;27.70;60.60;;;;;;4668324;30;20065;-82
2022/07/24 08:02:13;;;;;;;13.40;9.43;;;28.00;60.30;;;;;;4668512;30;20026;-83
2022/07/24 08:04:38;;;;;;;15.00;9.05;;;27.80;61.00;;;;;;4668523;30;20560;-82
2022/07/24 08:07:04;;;;;;;13.57;8.90;;;28.00;60.60;;;;;;4667994;30;20155;-82
2022/07/24 08:09:30;;;;;;;12.18;8.57;;;28.10;60.90;;;;;;4666422;30;20058;-82
2022/07/24 08:11:56;;;;;;;12.82;8.77;;;27.80;60.50;;;;;;4668060;30;20239;-81
2022/07/24 08:14:22;;;;;;;15.50;9.15;;;27.80;61.00;;;;;;4667905;30;20657;-83
2022/07/24 08:16:47;;;;;;;15.27;9.75;;;27.70;61.30;;;;;;4666625;30;20042;-82
2022/07/24 08:19:16;;;;;;;15.00;9.20;;;27.70;61.20;;;;;;4668174;30;20123;-82
2022/07/24 08:21:42;;;;;;;14.68;9.27;;;27.70;61.40;;;;;;4668077;30;20034;-81
2022/07/24 08:24:08;;;;;;;13.70;9.10;;;;;;;;;;4666653;30;20101;-82
2022/07/24 08:26:34;;;;;;;17.95;9.57;;;27.80;60.60;;;;;;4666712;30;20432;-83
2022/07/24 08:29:00;;;;;;;14.35;9.20;;;28.10;61.30;;;;;;4668116;30;20506;-82
2022/07/24 08:31:26;;;;;;;14.85;9.00;;;28.10;61.30;;;;;;4666582;30;20563;-82
2022/07/24 08:33:52;;;;;;;11.30;8.55;;;28.30;60.90;;;;;;4667777;30;20034;-82
2022/07/24 08:36:18;;;;;;;14.05;9.32;;;28.40;60.90;;;;;;4665966;30;20168;-82
2022/07/24 08:38:44;;;;;;;12.32;8.77;;;28.40;60.80;;;;;;4665855;30;20049;-83
2022/07/24 08:41:12;;;;;;;14.15;9.32;;;28.60;60.80;;;;;;4667675;30;20486;-83
2022/07/24 08:43:38;;;;;;;16.38;10.43;;;28.70;61.20;;;;;;4667740;30;20235;-81
2022/07/24 08:46:08;;;;;;;14.50;9.25;;;28.80;60.60;;;;;;4667857;30;20057;-81
2022/07/24 08:48:34;;;;;;;17.70;9.13;;;29.20;60.60;;;;;;4670751;30;20045;-80
2022/07/24 08:51:01;;;;;;;16.95;10.43;;;29.20;60.10;;;;;;4669961;30;20046;-82
2022/07/24 08:53:27;;;;;;;13.45;9.27;;;29.50;59.40;;;;;;4671003;30;20270;-81
2022/07/24 08:55:52;;;;;;;20.45;11.27;;;29.90;60.90;;;;;;4671044;30;20176;-82
2022/07/24 08:58:18;;;;;;;14.90;9.77;;;;;;;;;;4669788;30;20038;-82
2022/07/24 09:00:45;;;;;;;12.82;9.13;;;29.60;58.50;;;;;;4671827;30;20357;-85
2022/07/24 09:03:12;;;;;;;26.20;10.68;;;29.50;62.40;;;;;;4672138;30;20053;-83
2022/07/24 09:05:57;;;;;;;18.55;11.73;;;29.90;59.50;;;;;;4673194;30;20256;-83
2022/07/24 09:08:23;;;;;;;14.15;9.45;;;30.30;58.40;;;;;;4675536;30;20291;-81
2022/07/24 09:11:03;;;;;;;14.93;9.48;;;30.30;58.30;;;;;;4673793;30;20156;-82
2022/07/24 09:14:29;;;;;;;17.95;10.52;;;30.50;58.10;;;;;;4671101;30;20068;-83
2022/07/24 09:16:22;;;;;;;12.57;9.43;;;30.70;58.40;;;;;;4670815;30;20396;-83
2022/07/24 09:18:49;;;;;;;16.23;9.15;;;30.80;57.70;;;;;;4669482;30;20478;-82
2022/07/24 09:21:16;;;;;;;17.40;9.13;;;30.90;57.60;;;;;;4670593;30;20030;-81
2022/07/24 09:23:43;;;;;;;15.27;10.85;;;31.00;57.60;;;;;;4670830;30;20047;-82
2022/07/24 09:26:10;;;;;;;13.70;8.90;;;31.10;57.10;;;;;;4669061;30;20053;-82
2022/07/24 09:28:52;;;;;;;17.00;9.88;;;31.00;56.80;;;;;;4670663;30;20042;-82
2022/07/24 09:31:21;;;;;;;;;;;30.70;57.80;;;;;;4671187;30;20045;-82
2022/07/24 09:33:47;;;;;;;13.43;9.00;;;30.60;57.80;;;;;;4669405;30;20284;-81
2022/07/24 09:36:15;;;;;;;14.18;9.60;;;30.80;57.70;;;;;;4668876;30;20257;-83
2022/07/24 09:38:51;;;;;;;17.45;10.07;;;30.80;57.30;;;;;;4669073;30;20050;-82
2022/07/24 09:41:24;;;;;;;16.27;10.25;;;31.40;57.80;;;;;;4669030;30;20069;-82
2022/07/24 09:44:02;;;;;;;19.88;10.48;;;28.50;56.10;;;;;;4670453;30;20048;-81
2022/07/24 09:46:29;;;;;;;15.48;9.23;;;31.10;57.80;;;;;;4668584;30;20131;-81
2022/07/24 09:48:57;;;;;;;13.25;8.98;;;31.40;57.40;;;;;;4670388;30;20057;-82
2022/07/24 09:51:24;;;;;;;14.32;9.13;;;31.30;57.50;;;;;;4670089;30;20038;-82
2022/07/24 09:53:59;;;;;;;13.20;9.55;;;31.50;57.80;;;;;;4668333;30;20133;-81
2022/07/24 09:56:26;;;;;;;14.20;7.78;;;31.40;57.90;;;;;;4670178;30;20593;-81
2022/07/24 09:58:58;;;;;;;12.27;7.20;;;31.30;57.90;;;;;;4669801;30;20113;-82
2022/07/24 10:01:25;;;;;;;;;;;31.20;58.10;;;;;;4668511;30;20054;-81
2022/07/24 10:03:53;;;;;;;14.02;8.10;;;31.10;57.90;;;;;;4668673;30;19917;-83
2022/07/24 10:06:22;;;;;;;13.98;8.05;;;31.10;58.40;;;;;;4669786;30;20042;-82
2022/07/24 10:08:50;;;;;;;12.35;7.55;;;30.90;58.70;;;;;;4669763;30;20264;-82
2022/07/24 10:11:16;;;;;;;15.30;8.23;;;30.90;59.30;;;;;;4669616;30;20121;-81
2022/07/24 10:13:43;;;;;;;12.55;7.78;;;31.00;59.40;;;;;;4669711;30;20046;-82
2022/07/24 10:16:12;;;;;;;13.02;7.85;;;31.20;59.50;;;;;;4669780;30;20034;-83
2022/07/24 10:18:41;;;;;;;13.75;8.43;;;31.30;59.10;;;;;;4668368;30;20141;-81
2022/07/24 10:21:10;;;;;;;17.70;8.45;;;31.00;59.30;;;;;;4670252;30;20354;-81
2022/07/24 10:24:14;;;;;;;11.75;8.00;;;31.30;59.30;;;;;;4669687;30;20727;-82
2022/07/24 10:26:46;;;;;;;11.63;8.55;;;31.20;60.10;;;;;;4669707;30;20050;-82
2022/07/24 10:29:24;;;;;;;12.82;8.18;;;31.70;60.90;;;;;;4669881;30;20053;-81
2022/07/24 10:31:55;;;;;;;14.45;8.02;;;32.00;60.40;;;;;;4669808;30;20358;-82
2022/07/24 10:34:21;;;;;;;11.40;7.53;;;32.10;59.20;;;;;;4670067;30;20038;-82
2022/07/24 10:37:24;;;;;;;11.80;7.53;;;30.40;58.50;;;;;;4671502;30;20568;-81
2022/07/24 10:40:04;;;;;;;13.48;7.97;;;32.30;58.20;;;;;;4672208;30;20125;-81
2022/07/24 10:42:30;;;;;;;11.98;8.10;;;32.60;57.90;;;;;;4669700;30;20550;-82
2022/07/24 10:45:17;;;;;;;13.25;8.15;;;32.40;58.30;;;;;;4668777;30;20442;-81
2022/07/24 10:47:43;;;;;;;12.45;8.52;;;32.40;58.10;;;;;;4669564;30;20034;-81
2022/07/24 10:50:09;;;;;;;14.23;8.23;;;32.70;57.90;;;;;;4669491;30;20498;-81
2022/07/24 10:52:45;;;;;;;13.98;8.65;;;32.70;57.90;;;;;;4668033;30;20042;-82
2022/07/24 10:55:26;;;;;;;13.70;8.43;;;33.00;57.70;;;;;;4669524;30;20633;-82
2022/07/24 10:58:08;;;;;;;14.98;8.77;;;33.20;57.50;;;;;;4669266;30;20038;-81
2022/07/24 11:00:37;;;;;;;14.05;8.65;;;33.20;57.50;;;;;;4668952;30;20042;-82
2022/07/24 11:03:06;;;;;;;15.05;8.80;;;33.30;56.90;;;;;;4669351;30;20065;-82
2022/07/24 11:05:33;;;;;;;12.85;7.93;;;33.50;56.70;;;;;;4668885;30;20038;-82
2022/07/24 11:08:17;;;;;;;12.23;8.10;;;33.40;57.20;;;;;;4667251;30;20053;-83
2022/07/24 11:10:53;;;;;;;11.85;9.05;;;33.60;57.70;;;;;;4668349;30;20038;-82
2022/07/24 11:13:31;;;;;;;12.60;8.25;;;33.50;56.60;;;;;;4667775;30;20250;-81
2022/07/24 11:16:16;;;;;;;21.42;8.90;;;33.80;56.00;;;;;;4668924;30;20220;-82
2022/07/24 11:18:47;;;;;;;12.65;8.23;;;33.80;55.70;;;;;;4668981;30;20138;-82
2022/07/24 11:21:32;;;;;;;14.43;8.35;;;33.80;55.80;;;;;;4667568;30;20042;-81
2022/07/24 11:27:06;;;;;;;11.32;8.18;;;34.20;54.70;;;;;;4668622;30;20330;-81
2022/07/24 11:29:37;;;;;;;11.75;7.80;;;34.00;55.00;;;;;;4660693;30;20121;-81
2022/07/24 11:32:10;;;;;;;14.23;7.97;;;34.10;54.80;;;;;;4668462;30;20030;-82
2022/07/24 11:34:37;;;;;;;11.50;7.05;;;34.30;54.60;;;;;;4668243;30;20045;-81
2022/07/24 11:37:06;;;;;;;11.18;7.25;;;34.40;54.10;;;;;;4666978;30;20046;-80
2022/07/24 11:39:37;;;;;;;11.63;7.00;;;34.70;53.90;;;;;;4667099;30;20053;-82
2022/07/24 11:42:06;;;;;;;9.73;6.88;;;34.70;53.40;;;;;;4666826;30;20120;-83
2022/07/24 11:44:34;;;;;;;11.43;7.13;;;34.00;52.90;;;;;;4668174;30;20041;-82
2022/07/24 11:47:06;;;;;;;10.93;7.32;;;35.20;52.60;;;;;;4668099;30;20057;-82
2022/07/24 11:49:43;;;;;;;11.70;6.72;;;35.20;52.10;;;;;;4668062;30;20293;-81
2022/07/24 11:52:17;;;;;;;11.68;6.80;;;35.40;51.70;;;;;;4668208;30;20649;-81
2022/07/24 11:54:43;;;;;;;10.75;7.18;;;35.60;51.60;;;;;;4667759;30;20038;-82
2022/07/24 11:57:21;;;;;;;9.27;6.55;;;35.80;51.60;;;;;;4666717;30;20108;-82
2022/07/24 11:59:49;;;;;;;10.63;7.03;;;35.80;51.10;;;;;;4668427;30;20046;-82
2022/07/24 12:02:15;;;;;;;10.77;6.50;;;35.90;50.10;;;;;;4668318;30;20546;-81
2022/07/24 12:04:42;;;;;;;11.90;7.25;;;35.90;50.70;;;;;;4667136;30;20431;-81
2022/07/24 12:07:11;;;;;;;11.05;6.25;;;36.30;50.90;;;;;;4667832;30;20232;-81
2022/07/24 12:09:59;;;;;;;10.10;5.90;;;36.60;48.70;;;;;;4667876;30;20066;-81
2022/07/24 12:12:33;;;;;;;11.43;6.45;;;36.60;49.70;;;;;;4668133;30;20129;-82
2022/07/24 12:15:08;;;;;;;10.57;7.13;;;36.90;49.20;;;;;;4668181;30;20526;-82
2022/07/24 12:17:54;;;;;;;10.13;6.72;;;37.10;48.90;;;;;;4666988;30;20534;-83
2022/07/24 12:20:21;;;;;;;9.95;5.95;;;37.40;46.60;;;;;;4666857;30;20327;-82
2022/07/24 12:22:47;;;;;;;9.50;4.80;;;37.90;46.00;;;;;;4665576;30;20034;-81
2022/07/24 12:25:14;;;;;;;8.35;4.97;;;38.60;46.50;;;;;;4667753;30;20184;-81
2022/07/24 12:27:47;;;;;;;7.75;5.35;;;38.00;44.80;;;;;;4667931;30;20042;-81
2022/07/24 12:30:33;;;;;;;9.82;5.47;;;38.30;44.40;;;;;;4667831;30;20092;-83
2022/07/24 12:33:29;;;;;;;10.85;5.38;;;36.90;43.40;;;;;;4667753;30;20362;-84
2022/07/24 12:36:00;;;;;;;11.48;5.80;;;38.70;44.50;;;;;;4668135;30;20540;-83
2022/07/24 12:38:26;;;;;;;8.48;5.65;;;38.90;45.10;;;;;;4667887;30;20149;-82
2022/07/24 12:41:07;;;;;;;8.95;5.20;;;39.10;44.90;;;;;;4667346;30;20125;-81
2022/07/24 12:44:00;;;;;;;8.27;5.50;;;38.90;43.00;;;;;;4666554;30;20097;-81
2022/07/24 12:46:39;;;;;;;8.88;5.00;;;38.70;42.60;;;;;;4667664;30;20054;-82
2022/07/24 12:49:18;;;;;;;9.45;4.90;;;39.10;43.50;;;;;;4667901;30;20045;-82